Time;durP1;ratioP1;P1;durP2;ratioP2;P2;SDS_P1;SDS_P2;PMS_P1;PMS_P2;Temp;Humidity;BMP_temperature;BMP_pressure;BME280_temperature;BME280_humidity;BME280_pressure;Samples;Min_cycle;Max_cycle;Signal;HPM_P1;HPM_P2
2020/12/23 00:01:30;;;;;;;9.00;4.28;;;8.30;99.90;;;;;;5047797;28;20108;-43
2020/12/23 00:03:57;;;;;;;9.38;4.65;;;8.30;99.90;;;;;;5046660;28;20501;-48
2020/12/23 00:06:33;;;;;;;11.23;4.80;;;8.30;99.90;;;;;;5046672;28;20039;-46
2020/12/23 00:08:59;;;;;;;8.60;4.40;;;8.30;99.90;;;;;;5046545;28;20029;-45
2020/12/23 00:11:26;;;;;;;11.00;3.67;;;8.40;99.90;;;;;;5034470;28;20115;-46
2020/12/23 00:13:52;;;;;;;7.40;3.97;;;8.30;99.90;;;;;;5047639;28;20052;-48
2020/12/23 00:16:17;;;;;;;9.23;3.38;;;8.30;99.90;;;;;;5045291;28;20024;-46
2020/12/23 00:18:43;;;;;;;7.10;3.50;;;8.30;99.90;;;;;;5047712;28;20036;-43
2020/12/23 00:21:08;;;;;;;8.00;3.88;;;8.30;99.90;;;;;;5047249;28;20017;-43
2020/12/23 00:23:35;;;;;;;8.60;4.53;;;8.30;99.90;;;;;;5047700;28;20111;-44
2020/12/23 00:26:00;;;;;;;16.52;3.63;;;8.40;99.90;;;;;;5047037;28;20070;-46
2020/12/23 00:28:26;;;;;;;11.40;4.35;;;8.40;99.90;;;;;;5047323;28;20032;-45
2020/12/23 00:30:51;;;;;;;8.55;4.60;;;8.40;99.90;;;;;;5047895;28;20075;-46
2020/12/23 00:33:18;;;;;;;10.20;3.53;;;8.30;99.90;;;;;;5046975;28;20029;-45
2020/12/23 00:35:43;;;;;;;8.40;4.30;;;8.30;99.90;;;;;;5046706;28;20033;-46
2020/12/23 00:38:09;;;;;;;9.32;4.10;;;8.40;99.90;;;;;;5046808;28;20497;-45
2020/12/23 00:40:35;;;;;;;12.68;4.32;;;8.30;99.90;;;;;;5047513;28;20025;-48
2020/12/23 00:43:00;;;;;;;9.85;4.53;;;8.30;99.90;;;;;;5047713;28;20339;-45
2020/12/23 00:45:26;;;;;;;10.65;4.57;;;8.30;99.90;;;;;;5046613;28;20402;-46
2020/12/23 00:47:51;;;;;;;10.60;4.30;;;8.30;99.90;;;;;;5047672;28;20118;-44
2020/12/23 00:50:17;;;;;;;10.15;3.97;;;8.30;99.90;;;;;;5051255;28;20490;-47
2020/12/23 00:52:43;;;;;;;8.20;4.88;;;8.30;99.90;;;;;;5051116;28;20486;-47
2020/12/23 00:55:09;;;;;;;7.45;3.60;;;8.30;99.90;;;;;;5048859;28;20025;-48
2020/12/23 00:57:36;;;;;;;8.93;3.70;;;8.30;99.90;;;;;;5050641;28;20482;-48
2020/12/23 01:00:04;;;;;;;10.43;4.63;;;8.30;99.90;;;;;;5051101;28;20539;-45
2020/12/23 01:02:30;;;;;;;12.27;4.90;;;8.30;99.90;;;;;;5049764;28;20025;-45
2020/12/23 01:04:56;;;;;;;10.82;4.40;;;8.40;99.90;;;;;;5050748;28;20525;-46
2020/12/23 01:07:21;;;;;;;9.00;5.00;;;8.40;99.90;;;;;;5050350;28;20474;-45
2020/12/23 01:09:47;;;;;;;9.48;5.25;;;8.30;99.90;;;;;;5049699;28;20036;-47
2020/12/23 01:12:13;;;;;;;14.32;4.82;;;8.40;99.90;;;;;;5046919;28;20076;-45
2020/12/23 01:14:39;;;;;;;8.10;5.30;;;8.30;99.90;;;;;;5048026;28;20036;-49
2020/12/23 01:17:04;;;;;;;15.85;5.28;;;8.30;99.90;;;;;;5048842;28;20044;-44
2020/12/23 01:19:30;;;;;;;10.80;5.57;;;8.30;99.90;;;;;;5050740;28;20523;-44
2020/12/23 01:21:56;;;;;;;13.95;5.00;;;8.30;99.90;;;;;;5050935;28;20071;-48
2020/12/23 01:24:21;;;;;;;12.80;5.20;;;8.20;99.90;;;;;;5048723;28;20025;-45
2020/12/23 01:26:48;;;;;;;10.68;5.18;;;8.20;99.90;;;;;;5049466;28;20781;-45
2020/12/23 01:29:14;;;;;;;9.73;4.75;;;8.20;99.90;;;;;;5050355;28;20111;-48
2020/12/23 01:31:43;;;;;;;8.35;5.40;;;8.20;99.90;;;;;;5050447;28;20435;-47
2020/12/23 01:34:09;;;;;;;10.50;4.93;;;8.30;99.90;;;;;;5049938;28;20043;-47
2020/12/23 01:36:34;;;;;;;17.20;5.60;;;8.20;99.90;;;;;;5049018;28;20108;-43
2020/12/23 01:39:01;;;;;;;8.73;5.05;;;8.20;99.90;;;;;;5050294;28;20028;-47
2020/12/23 01:41:27;;;;;;;12.38;5.88;;;8.30;99.90;;;;;;5048678;28;20108;-48
2020/12/23 01:43:54;;;;;;;14.35;5.63;;;8.30;99.90;;;;;;5048660;28;20025;-47
2020/12/23 01:46:32;;;;;;;15.75;5.35;;;8.30;99.90;;;;;;5048944;28;20513;-47
2020/12/23 01:49:01;;;;;;;15.98;5.82;;;8.30;99.90;;;;;;5050450;28;20021;-48
2020/12/23 01:51:26;;;;;;;16.05;5.38;;;8.30;99.90;;;;;;5049312;28;20493;-47
2020/12/23 01:53:53;;;;;;;8.95;5.55;;;8.20;99.90;;;;;;5049716;28;20135;-43
2020/12/23 01:56:21;;;;;;;13.60;6.35;;;8.20;99.90;;;;;;5048700;28;20021;-43
2020/12/23 01:58:48;;;;;;;15.07;5.22;;;8.20;99.90;;;;;;5049601;28;20025;-47
2020/12/23 02:01:24;;;;;;;18.50;7.35;;;8.20;99.90;;;;;;5049491;28;20055;-46
2020/12/23 02:03:50;;;;;;;12.13;5.60;;;8.30;99.90;;;;;;5049959;28;20027;-45
2020/12/23 02:06:17;;;;;;;9.20;4.50;;;8.20;99.90;;;;;;5048303;28;20044;-46
2020/12/23 02:08:43;;;;;;;12.77;5.63;;;8.20;99.90;;;;;;5049897;28;20629;-47
2020/12/23 02:11:13;;;;;;;12.35;5.32;;;8.20;99.90;;;;;;5047962;28;20021;-47
2020/12/23 02:13:46;;;;;;;16.17;6.17;;;8.30;99.90;;;;;;5039182;28;20449;-46
2020/12/23 02:16:12;;;;;;;15.20;6.40;;;8.30;99.90;;;;;;5028233;28;20707;-44
2020/12/23 02:18:38;;;;;;;15.07;6.30;;;8.30;99.90;;;;;;5029595;28;20120;-46
2020/12/23 02:21:04;;;;;;;17.08;7.00;;;8.30;99.90;;;;;;5029693;28;20025;-44
2020/12/23 02:23:30;;;;;;;14.88;6.47;;;8.30;99.90;;;;;;5029023;28;20033;-48
2020/12/23 02:25:57;;;;;;;14.63;6.70;;;8.30;99.90;;;;;;5029048;28;20372;-46
2020/12/23 02:28:23;;;;;;;14.68;6.07;;;8.30;99.90;;;;;;5029074;28;20067;-47
2020/12/23 02:30:57;;;;;;;14.48;6.13;;;8.30;99.90;;;;;;5028484;28;20045;-45
2020/12/23 02:33:23;;;;;;;12.77;6.72;;;8.30;99.90;;;;;;5028916;28;20030;-46
2020/12/23 02:35:49;;;;;;;16.75;7.85;;;8.30;99.90;;;;;;5028289;28;20028;-49
2020/12/23 02:38:15;;;;;;;11.90;6.68;;;8.30;99.90;;;;;;5028518;28;20036;-48
2020/12/23 02:40:40;;;;;;;12.90;7.15;;;8.20;99.90;;;;;;5029245;28;20029;-44
2020/12/23 02:43:06;;;;;;;17.95;7.88;;;8.20;99.90;;;;;;5029381;28;20095;-49
2020/12/23 02:45:32;;;;;;;13.45;6.68;;;8.20;99.90;;;;;;5026985;28;20038;-47
2020/12/23 02:47:58;;;;;;;15.25;6.47;;;8.20;99.90;;;;;;5029062;28;20029;-48
2020/12/23 02:50:23;;;;;;;15.73;7.38;;;8.20;99.90;;;;;;5028835;28;20057;-45
2020/12/23 02:52:49;;;;;;;19.25;8.15;;;8.20;99.90;;;;;;5027178;28;20037;-45
2020/12/23 02:55:15;;;;;;;21.90;8.85;;;8.20;99.90;;;;;;5027878;28;20021;-45
2020/12/23 02:57:40;;;;;;;14.90;7.75;;;8.20;99.90;;;;;;5028742;28;20037;-48
2020/12/23 03:00:06;;;;;;;18.25;8.15;;;8.20;99.90;;;;;;5028554;28;20104;-49
2020/12/23 03:02:32;;;;;;;17.52;9.05;;;8.20;99.90;;;;;;5027504;28;20021;-44
2020/12/23 03:04:59;;;;;;;15.25;8.13;;;8.10;99.90;;;;;;5028128;28;20017;-47
2020/12/23 03:07:25;;;;;;;16.70;7.95;;;8.20;99.90;;;;;;5026611;28;20079;-47
2020/12/23 03:09:50;;;;;;;16.27;7.90;;;8.20;99.90;;;;;;5027601;28;20442;-48
2020/12/23 03:12:16;;;;;;;14.55;7.80;;;8.20;99.90;;;;;;5027289;28;20057;-47
2020/12/23 03:14:42;;;;;;;14.35;7.13;;;8.20;99.90;;;;;;5036046;28;20025;-46
2020/12/23 03:17:08;;;;;;;16.15;7.60;;;8.20;99.90;;;;;;5047531;28;20255;-46
2020/12/23 03:19:34;;;;;;;14.10;6.43;;;8.20;99.90;;;;;;5048669;28;20021;-46
2020/12/23 03:21:59;;;;;;;13.90;6.80;;;8.20;99.90;;;;;;5046774;28;20085;-45
2020/12/23 03:24:25;;;;;;;14.80;7.28;;;8.20;99.90;;;;;;5047780;28;20537;-44
2020/12/23 03:26:51;;;;;;;11.77;6.60;;;8.20;99.90;;;;;;5047296;28;20028;-47
2020/12/23 03:29:17;;;;;;;12.20;6.75;;;8.20;99.90;;;;;;5048811;28;20378;-46
2020/12/23 03:31:43;;;;;;;12.32;6.57;;;8.30;99.90;;;;;;5048385;28;20031;-46
2020/12/23 03:34:09;;;;;;;12.10;6.63;;;8.20;99.90;;;;;;5047757;28;20183;-43
2020/12/23 03:36:35;;;;;;;10.48;5.85;;;8.30;99.90;;;;;;5036843;28;20375;-47
2020/12/23 03:39:00;;;;;;;13.65;7.50;;;8.30;99.90;;;;;;5038168;28;20029;-43
2020/12/23 03:41:26;;;;;;;15.57;7.40;;;8.20;99.90;;;;;;5037476;28;20022;-43
2020/12/23 03:43:52;;;;;;;13.13;7.53;;;8.30;99.90;;;;;;5035994;28;20021;-43
2020/12/23 03:46:17;;;;;;;13.63;7.22;;;8.30;99.90;;;;;;5037223;28;20263;-44
2020/12/23 03:48:43;;;;;;;15.48;7.68;;;8.30;99.90;;;;;;5038417;28;20068;-44
2020/12/23 03:51:09;;;;;;;14.32;7.10;;;8.30;99.90;;;;;;5036718;28;20025;-47
2020/12/23 03:53:35;;;;;;;18.70;8.70;;;8.30;99.90;;;;;;5037547;28;20036;-46
2020/12/23 03:56:00;;;;;;;15.27;8.70;;;8.30;99.90;;;;;;5036693;28;20147;-49
2020/12/23 03:58:26;;;;;;;17.75;8.70;;;8.30;99.90;;;;;;5037557;28;20427;-47
2020/12/23 04:00:52;;;;;;;18.13;9.35;;;8.30;99.90;;;;;;5037327;28;20017;-44
2020/12/23 04:03:18;;;;;;;17.25;9.02;;;8.30;99.90;;;;;;5037127;28;20025;-46
2020/12/23 04:05:43;;;;;;;14.23;7.93;;;8.30;99.90;;;;;;5035053;28;20021;-45
2020/12/23 04:08:09;;;;;;;14.73;7.68;;;8.30;99.90;;;;;;5033672;28;20025;-44
2020/12/23 04:10:34;;;;;;;19.25;8.32;;;8.30;99.90;;;;;;5037086;28;20021;-45
2020/12/23 04:13:01;;;;;;;15.20;7.97;;;8.30;99.90;;;;;;5031216;28;20128;-48
2020/12/23 04:15:27;;;;;;;18.08;8.93;;;8.30;99.90;;;;;;5033126;28;20051;-45
2020/12/23 04:17:54;;;;;;;21.30;9.43;;;8.30;99.90;;;;;;5043522;28;20053;-42
2020/12/23 04:20:20;;;;;;;17.05;9.05;;;8.30;99.90;;;;;;5047921;28;20104;-44
2020/12/23 04:22:45;;;;;;;14.77;8.65;;;8.30;99.90;;;;;;5048834;28;20112;-44
2020/12/23 04:25:11;;;;;;;15.80;7.95;;;8.40;99.90;;;;;;5049573;28;20039;-44
2020/12/23 04:27:37;;;;;;;13.18;7.57;;;8.40;99.90;;;;;;5049035;28;20063;-44
2020/12/23 04:30:05;;;;;;;22.17;7.35;;;8.30;99.90;;;;;;5041942;28;20033;-43
2020/12/23 04:32:30;;;;;;;13.32;7.63;;;8.40;99.90;;;;;;5042574;28;20017;-46
2020/12/23 04:35:01;;;;;;;13.32;7.65;;;8.40;99.90;;;;;;5039107;28;20043;-45
2020/12/23 04:37:27;;;;;;;;;;;8.40;99.90;;;;;;5038837;28;20025;-44
2020/12/23 04:39:55;;;;;;;13.73;6.90;;;8.40;99.90;;;;;;5040689;28;19909;-43
2020/12/23 04:42:20;;;;;;;14.50;7.78;;;8.40;99.90;;;;;;5040993;28;20120;-45
2020/12/23 04:44:47;;;;;;;23.02;8.55;;;8.40;99.90;;;;;;5036233;28;20104;-45
2020/12/23 04:47:15;;;;;;;15.77;7.78;;;8.40;99.90;;;;;;5040039;28;20518;-44
2020/12/23 04:49:45;;;;;;;17.50;8.90;;;8.40;99.90;;;;;;5040049;28;20090;-45
2020/12/23 04:52:14;;;;;;;18.07;8.27;;;8.40;99.90;;;;;;5041164;28;20363;-48
2020/12/23 04:54:41;;;;;;;15.88;7.82;;;8.40;99.90;;;;;;5038538;28;20295;-42
2020/12/23 04:57:06;;;;;;;16.13;8.32;;;8.40;99.90;;;;;;5040319;28;20027;-45
2020/12/23 04:59:32;;;;;;;13.88;7.22;;;8.40;99.90;;;;;;5039196;28;20108;-46
2020/12/23 05:02:00;;;;;;;17.08;8.73;;;8.40;99.90;;;;;;5040388;28;20025;-45
2020/12/23 05:04:27;;;;;;;13.05;7.13;;;8.40;99.90;;;;;;5039517;28;20041;-43
2020/12/23 05:07:05;;;;;;;15.90;7.47;;;8.40;99.90;;;;;;5038301;28;20124;-44
2020/12/23 05:09:31;;;;;;;12.38;7.05;;;8.40;99.90;;;;;;5038268;28;20055;-43
2020/12/23 05:11:59;;;;;;;14.30;8.02;;;8.40;99.90;;;;;;5038701;28;20021;-44
2020/12/23 05:14:28;;;;;;;17.45;8.35;;;8.40;99.90;;;;;;5048390;28;20036;-48
2020/12/23 05:16:55;;;;;;;17.10;7.82;;;8.40;99.90;;;;;;5045008;28;20087;-46
2020/12/23 05:19:22;;;;;;;15.52;7.53;;;8.40;99.90;;;;;;5049923;28;20090;-45
2020/12/23 05:21:48;;;;;;;15.95;7.80;;;8.40;99.90;;;;;;5049888;28;20417;-44
2020/12/23 05:24:14;;;;;;;15.20;8.60;;;8.40;99.90;;;;;;5050437;28;20025;-47
2020/12/23 05:26:46;;;;;;;17.27;9.27;;;8.40;99.90;;;;;;5049872;28;20056;-46
2020/12/23 05:29:14;;;;;;;16.42;8.73;;;8.40;99.90;;;;;;5050646;28;20025;-48
2020/12/23 05:31:41;;;;;;;16.00;7.57;;;8.40;99.90;;;;;;5050055;28;20036;-45
2020/12/23 05:34:07;;;;;;;16.80;8.60;;;8.40;99.90;;;;;;5049033;28;20103;-43
2020/12/23 05:36:36;;;;;;;19.55;8.95;;;8.40;99.90;;;;;;5048556;28;20159;-44
2020/12/23 05:39:06;;;;;;;15.02;7.93;;;8.40;99.90;;;;;;5050107;28;20379;-43
2020/12/23 05:41:34;;;;;;;19.63;9.15;;;8.40;99.90;;;;;;5032172;28;20022;-44
2020/12/23 05:44:03;;;;;;;16.55;8.30;;;8.40;99.90;;;;;;5029266;28;20060;-43
2020/12/23 05:46:28;;;;;;;23.58;9.55;;;8.40;99.90;;;;;;5040012;28;20031;-45
2020/12/23 05:48:54;;;;;;;16.95;8.63;;;8.40;99.90;;;;;;5048717;28;20029;-46
2020/12/23 05:51:21;;;;;;;15.73;8.27;;;8.30;99.90;;;;;;5048462;28;20385;-48
2020/12/23 05:53:47;;;;;;;16.20;7.75;;;8.30;99.90;;;;;;5049666;28;20031;-49
2020/12/23 05:56:13;;;;;;;19.42;8.23;;;8.30;99.90;;;;;;5048725;28;20025;-44
2020/12/23 05:58:39;;;;;;;15.30;7.32;;;8.30;99.90;;;;;;5041609;28;20051;-47
2020/12/23 06:01:07;;;;;;;14.10;7.75;;;8.40;99.90;;;;;;5043075;28;20696;-45
2020/12/23 06:03:56;;;;;;;15.18;7.20;;;8.40;99.90;;;;;;5035550;28;20013;-44
2020/12/23 06:06:25;;;;;;;12.98;6.97;;;8.40;99.90;;;;;;5034588;28;20028;-45
2020/12/23 06:08:56;;;;;;;15.93;8.10;;;8.40;99.90;;;;;;5042075;28;20064;-46
2020/12/23 06:11:37;;;;;;;14.02;7.32;;;8.40;99.90;;;;;;5037091;28;20264;-46
2020/12/23 06:14:02;;;;;;;12.63;6.65;;;8.40;99.90;;;;;;5039165;28;20094;-44
2020/12/23 06:16:35;;;;;;;15.52;7.68;;;8.30;99.90;;;;;;5042441;28;20033;-48
2020/12/23 06:19:06;;;;;;;14.95;8.85;;;8.40;99.90;;;;;;5037629;28;20079;-47
2020/12/23 06:21:33;;;;;;;;;;;8.40;99.90;;;;;;5032864;28;20028;-44
2020/12/23 06:24:15;;;;;;;16.40;7.18;;;8.40;99.90;;;;;;5040031;28;20004;-47
2020/12/23 06:26:43;;;;;;;13.80;7.18;;;8.40;99.90;;;;;;5036930;28;20024;-44
2020/12/23 06:29:11;;;;;;;21.35;9.25;;;8.40;99.90;;;;;;5028208;28;20047;-43
2020/12/23 06:32:05;;;;;;;17.80;8.20;;;8.40;99.90;;;;;;5029692;28;20068;-44
2020/12/23 06:34:40;;;;;;;17.00;8.90;;;8.40;99.90;;;;;;5028715;28;20095;-48
2020/12/23 06:37:17;;;;;;;18.20;8.25;;;8.40;99.90;;;;;;5028545;28;20050;-45
2020/12/23 06:39:44;;;;;;;16.73;7.65;;;8.40;99.90;;;;;;5029491;28;20033;-47
2020/12/23 06:42:10;;;;;;;17.98;7.82;;;8.40;99.90;;;;;;5028111;28;20564;-45
2020/12/23 06:44:44;;;;;;;15.30;8.48;;;8.40;99.90;;;;;;5029068;28;20079;-47
2020/12/23 06:47:12;;;;;;;21.75;8.88;;;8.40;99.90;;;;;;5027876;28;20052;-48
2020/12/23 06:49:45;;;;;;;21.48;9.73;;;8.40;99.90;;;;;;5037424;28;20080;-46
2020/12/23 06:52:27;;;;;;;17.88;9.10;;;8.40;99.90;;;;;;5034940;28;20033;-48
2020/12/23 06:55:00;;;;;;;18.92;8.77;;;8.40;99.90;;;;;;5038673;28;20024;-46
2020/12/23 06:57:35;;;;;;;17.35;8.60;;;8.40;99.90;;;;;;5046411;28;20048;-45
2020/12/23 07:00:07;;;;;;;22.25;9.85;;;8.40;99.90;;;;;;5040324;28;20021;-46
2020/12/23 07:02:40;;;;;;;17.95;8.88;;;8.50;99.90;;;;;;5034115;28;20038;-48
2020/12/23 07:05:07;;;;;;;15.60;8.55;;;8.40;99.90;;;;;;5033324;28;20112;-45
2020/12/23 07:07:37;;;;;;;16.52;8.27;;;8.40;99.90;;;;;;5036544;28;20033;-49
2020/12/23 07:10:15;;;;;;;17.65;9.38;;;8.40;99.90;;;;;;5039670;28;20086;-46
2020/12/23 07:12:51;;;;;;;17.55;8.18;;;8.50;99.90;;;;;;5039752;28;20028;-46
2020/12/23 07:15:24;;;;;;;20.35;9.48;;;8.50;99.90;;;;;;5044602;28;20025;-43
2020/12/23 07:17:51;;;;;;;19.17;8.95;;;8.50;99.90;;;;;;5047161;28;20043;-44
2020/12/23 07:20:20;;;;;;;14.75;8.68;;;8.50;99.90;;;;;;5035332;28;20494;-47
2020/12/23 07:22:51;;;;;;;16.02;7.63;;;8.50;99.90;;;;;;5028668;28;20048;-48
2020/12/23 07:25:26;;;;;;;14.45;7.85;;;8.50;99.90;;;;;;5028128;28;20091;-48
2020/12/23 07:27:55;;;;;;;20.70;9.23;;;8.50;99.90;;;;;;5027197;28;20125;-44
2020/12/23 07:30:22;;;;;;;19.63;9.73;;;8.60;99.90;;;;;;5028547;28;20252;-44
2020/12/23 07:33:04;;;;;;;22.70;10.85;;;8.60;99.90;;;;;;5028697;28;20064;-45
2020/12/23 07:35:30;;;;;;;22.55;10.80;;;8.60;99.90;;;;;;5026077;28;20140;-50
2020/12/23 07:38:00;;;;;;;22.40;11.18;;;8.60;99.90;;;;;;5028003;28;20022;-46
2020/12/23 07:40:27;;;;;;;24.83;12.98;;;8.50;99.90;;;;;;5028584;28;20139;-47
2020/12/23 07:42:55;;;;;;;25.80;11.63;;;8.60;99.90;;;;;;5028641;28;20387;-44
2020/12/23 07:45:22;;;;;;;23.05;11.20;;;8.60;99.90;;;;;;5027382;28;20021;-46
2020/12/23 07:48:01;;;;;;;29.13;13.57;;;8.60;99.90;;;;;;5028151;28;20104;-47
2020/12/23 07:50:32;;;;;;;32.40;13.23;;;8.60;99.90;;;;;;5028501;28;20025;-47
2020/12/23 07:53:10;;;;;;;29.63;11.95;;;8.60;99.90;;;;;;5026772;28;20029;-45
2020/12/23 07:55:36;;;;;;;30.70;12.32;;;8.60;99.90;;;;;;5035251;28;20075;-46
2020/12/23 07:58:02;;;;;;;32.55;13.68;;;8.60;99.90;;;;;;5036220;28;20033;-48
2020/12/23 08:00:29;;;;;;;23.42;11.73;;;8.60;99.90;;;;;;5037231;28;20028;-49
2020/12/23 08:02:54;;;;;;;26.40;12.40;;;8.60;99.90;;;;;;5046547;28;20028;-44
2020/12/23 08:05:20;;;;;;;25.38;11.98;;;8.60;99.90;;;;;;5047288;28;20067;-45
2020/12/23 08:07:46;;;;;;;28.60;12.50;;;8.60;99.90;;;;;;5047990;28;20036;-47
2020/12/23 08:10:17;;;;;;;26.75;12.63;;;8.60;99.90;;;;;;5044036;28;20037;-46
2020/12/23 08:13:09;;;;;;;23.17;11.85;;;8.60;99.90;;;;;;5031371;28;20087;-49
2020/12/23 08:15:35;;;;;;;21.52;11.90;;;8.60;99.90;;;;;;5036859;28;20108;-44
2020/12/23 08:18:04;;;;;;;23.38;10.85;;;8.70;99.90;;;;;;5036198;28;20025;-48
2020/12/23 08:20:32;;;;;;;27.50;13.52;;;8.60;99.90;;;;;;5037063;28;20074;-48
2020/12/23 08:22:59;;;;;;;28.42;12.73;;;8.70;99.90;;;;;;5047118;28;20478;-46
2020/12/23 08:25:26;;;;;;;25.27;11.98;;;8.70;99.90;;;;;;5046800;28;20029;-49
2020/12/23 08:27:54;;;;;;;25.98;12.25;;;8.70;99.90;;;;;;5047629;28;20059;-48
2020/12/23 08:30:23;;;;;;;26.05;12.48;;;8.70;99.90;;;;;;5046182;28;20389;-44
2020/12/23 08:33:12;;;;;;;27.58;13.75;;;8.70;99.90;;;;;;5048004;28;20029;-44
2020/12/23 08:35:40;;;;;;;34.67;15.60;;;8.70;99.90;;;;;;5046701;28;20211;-45
2020/12/23 08:38:22;;;;;;;32.05;14.93;;;8.70;99.90;;;;;;5045923;28;20029;-47
2020/12/23 08:40:50;;;;;;;32.78;15.30;;;8.70;99.90;;;;;;5046495;28;20025;-48
2020/12/23 08:43:24;;;;;;;35.35;15.68;;;8.70;99.90;;;;;;5047714;28;20400;-46
2020/12/23 08:45:52;;;;;;;33.72;16.27;;;8.70;99.90;;;;;;5045824;28;20386;-47
2020/12/23 08:48:21;;;;;;;38.90;15.80;;;8.70;99.90;;;;;;5045838;28;20021;-47
2020/12/23 08:51:03;;;;;;;37.20;15.57;;;8.70;99.90;;;;;;5047733;28;20055;-47
2020/12/23 08:53:37;;;;;;;34.92;15.50;;;8.70;99.90;;;;;;5046884;28;20021;-47
2020/12/23 08:56:25;;;;;;;38.90;17.92;;;8.70;99.90;;;;;;5046522;28;20494;-44
2020/12/23 08:58:57;;;;;;;40.55;17.85;;;8.70;99.90;;;;;;5047573;28;20482;-47
2020/12/23 09:01:24;;;;;;;40.40;16.98;;;8.70;99.90;;;;;;5047606;28;20067;-48
2020/12/23 09:04:07;;;;;;;38.58;17.48;;;8.80;99.90;;;;;;5047618;28;20159;-48
2020/12/23 09:06:34;;;;;;;43.90;17.85;;;8.80;99.90;;;;;;5046051;28;20025;-46
2020/12/23 09:09:15;;;;;;;45.53;19.65;;;8.80;99.90;;;;;;5026246;28;20034;-44
2020/12/23 09:11:48;;;;;;;51.80;21.98;;;8.80;99.90;;;;;;5044684;28;20139;-47
2020/12/23 09:14:20;;;;;;;43.47;19.23;;;8.80;99.90;;;;;;5042778;28;20064;-45
2020/12/23 09:17:00;;;;;;;45.42;21.08;;;8.80;99.90;;;;;;5047992;28;20107;-48
2020/12/23 09:19:42;;;;;;;44.65;19.48;;;8.80;99.90;;;;;;5041174;28;20068;-44
2020/12/23 09:22:13;;;;;;;49.13;20.25;;;8.80;99.90;;;;;;5037333;28;20275;-49
2020/12/23 09:24:39;;;;;;;;;;;8.80;99.90;;;;;;5029123;28;20025;-46
2020/12/23 09:27:22;;;;;;;44.03;19.70;;;8.80;99.90;;;;;;5030926;28;20004;-45
2020/12/23 09:29:47;;;;;;;44.47;19.65;;;8.80;99.90;;;;;;5030645;28;20013;-48
2020/12/23 09:32:13;;;;;;;51.78;20.45;;;8.80;99.90;;;;;;5030615;28;20490;-45
2020/12/23 09:34:39;;;;;;;47.72;21.05;;;8.90;99.90;;;;;;5032515;28;20131;-46
2020/12/23 09:37:05;;;;;;;51.97;22.27;;;8.90;99.90;;;;;;5047324;28;20130;-44
2020/12/23 09:39:35;;;;;;;52.88;20.75;;;8.90;99.90;;;;;;5049564;28;20067;-49
2020/12/23 09:42:03;;;;;;;49.75;19.70;;;8.90;99.90;;;;;;5029443;28;20030;-49
2020/12/23 09:44:29;;;;;;;42.85;21.08;;;8.90;99.90;;;;;;5029527;28;20402;-49
2020/12/23 09:46:54;;;;;;;55.25;21.52;;;8.90;99.90;;;;;;5030223;28;20018;-45
2020/12/23 09:49:20;;;;;;;53.53;21.90;;;9.00;99.90;;;;;;5029864;28;20475;-45
2020/12/23 09:51:50;;;;;;;43.67;21.45;;;9.00;99.90;;;;;;5030125;28;20529;-47
2020/12/23 09:54:16;;;;;;;50.42;21.67;;;9.00;99.90;;;;;;5029643;28;20014;-46
2020/12/23 09:56:52;;;;;;;45.05;19.05;;;9.00;99.90;;;;;;5028990;28;20091;-47
2020/12/23 09:59:19;;;;;;;47.35;22.10;;;9.00;99.90;;;;;;5028497;28;20029;-49
2020/12/23 10:01:45;;;;;;;47.90;20.85;;;9.00;99.90;;;;;;5028855;28;20029;-49
2020/12/23 10:04:11;;;;;;;54.35;22.15;;;9.00;99.90;;;;;;5028591;28;20045;-45
2020/12/23 10:06:37;;;;;;;46.25;21.15;;;9.00;99.90;;;;;;5029388;28;20021;-46
2020/12/23 10:09:07;;;;;;;47.55;21.17;;;9.00;99.90;;;;;;5029628;28;20079;-46
2020/12/23 10:11:33;;;;;;;43.53;20.20;;;9.00;99.90;;;;;;5028814;28;20029;-48
2020/12/23 10:14:01;;;;;;;53.38;20.65;;;9.00;99.90;;;;;;5012177;28;20075;-50
2020/12/23 10:16:31;;;;;;;51.90;23.83;;;9.10;99.90;;;;;;5030957;28;20030;-48
2020/12/23 10:18:58;;;;;;;53.50;22.95;;;9.10;99.90;;;;;;5034979;28;20109;-48
2020/12/23 10:21:24;;;;;;;52.70;23.17;;;9.00;99.90;;;;;;5027709;28;20526;-51
2020/12/23 10:23:50;;;;;;;49.40;21.55;;;9.10;99.90;;;;;;5039900;28;20108;-48
2020/12/23 10:26:16;;;;;;;48.80;22.38;;;9.10;99.90;;;;;;5047204;28;20394;-49
2020/12/23 10:28:42;;;;;;;57.50;23.73;;;9.00;99.90;;;;;;5048742;28;20060;-45
2020/12/23 10:31:08;;;;;;;50.95;23.13;;;9.10;99.90;;;;;;5048584;28;20466;-49
2020/12/23 10:33:34;;;;;;;60.45;24.65;;;9.10;99.90;;;;;;5047173;28;20036;-46
2020/12/23 10:36:14;;;;;;;65.07;25.58;;;9.10;99.90;;;;;;5047514;28;20029;-50
2020/12/23 10:38:43;;;;;;;50.85;20.88;;;9.10;99.90;;;;;;5047529;28;20029;-49
2020/12/23 10:41:10;;;;;;;52.78;22.35;;;9.10;99.90;;;;;;5035444;28;20026;-48
2020/12/23 10:43:36;;;;;;;56.00;23.67;;;9.10;99.90;;;;;;5028229;28;20104;-47
2020/12/23 10:46:07;;;;;;;57.40;24.35;;;9.10;99.90;;;;;;5028025;28;20112;-46
2020/12/23 10:48:34;;;;;;;59.83;24.85;;;9.10;99.90;;;;;;5030558;28;20052;-44
2020/12/23 10:51:03;;;;;;;54.88;24.65;;;9.20;99.90;;;;;;5035223;28;20056;-45
2020/12/23 10:53:29;;;;;;;56.92;25.88;;;9.20;99.90;;;;;;5027123;28;20025;-47
2020/12/23 10:55:55;;;;;;;60.65;24.27;;;9.20;99.90;;;;;;5044929;28;20522;-45
2020/12/23 10:58:21;;;;;;;49.75;23.90;;;9.30;99.90;;;;;;5046667;28;20033;-44
2020/12/23 11:00:47;;;;;;;60.75;26.02;;;9.30;99.90;;;;;;5045875;28;20021;-48
2020/12/23 11:03:12;;;;;;;54.33;23.45;;;9.30;99.90;;;;;;5046251;28;20502;-49
2020/12/23 11:05:38;;;;;;;54.42;23.35;;;9.30;99.90;;;;;;5045482;28;20130;-48
2020/12/23 11:08:04;;;;;;;67.50;26.75;;;9.30;99.90;;;;;;5045759;28;20033;-48
2020/12/23 11:10:29;;;;;;;48.95;22.63;;;9.40;99.90;;;;;;5027528;28;20033;-48
2020/12/23 11:12:55;;;;;;;53.35;21.80;;;9.40;99.90;;;;;;5027569;28;20264;-46
2020/12/23 11:15:21;;;;;;;54.20;23.25;;;9.40;99.90;;;;;;5026552;28;20296;-44
2020/12/23 11:17:46;;;;;;;56.83;24.50;;;9.40;99.90;;;;;;5029027;28;20490;-46
2020/12/23 11:20:12;;;;;;;56.13;24.77;;;9.50;99.90;;;;;;5047147;28;20029;-46
2020/12/23 11:22:38;;;;;;;51.10;22.48;;;9.50;99.90;;;;;;5046298;28;20138;-48
2020/12/23 11:25:07;;;;;;;51.15;22.98;;;9.50;99.90;;;;;;5024962;28;20075;-46
2020/12/23 11:27:33;;;;;;;62.75;23.17;;;9.50;99.90;;;;;;5027111;28;20040;-47
2020/12/23 11:29:59;;;;;;;50.33;22.45;;;9.50;99.90;;;;;;5027424;28;20037;-48
2020/12/23 11:32:25;;;;;;;50.92;24.00;;;9.50;99.90;;;;;;5026258;28;20080;-47
2020/12/23 11:34:50;;;;;;;55.83;24.02;;;9.60;99.90;;;;;;5026466;28;20280;-49
2020/12/23 11:37:16;;;;;;;57.45;23.48;;;9.50;99.90;;;;;;5026478;28;20124;-45
2020/12/23 11:39:42;;;;;;;54.58;22.85;;;9.50;99.90;;;;;;5026764;28;20052;-50
2020/12/23 11:42:07;;;;;;;62.25;24.17;;;9.50;99.90;;;;;;5025866;28;20439;-45
2020/12/23 11:44:34;;;;;;;46.83;21.35;;;9.50;99.90;;;;;;5026564;28;20544;-50
2020/12/23 11:46:59;;;;;;;53.38;23.05;;;9.50;99.90;;;;;;5025757;28;20104;-49
2020/12/23 11:49:25;;;;;;;57.78;24.02;;;9.50;99.90;;;;;;5026633;28;20109;-49
2020/12/23 11:51:51;;;;;;;56.67;23.55;;;9.50;99.90;;;;;;5027027;28;20378;-48
2020/12/23 11:54:18;;;;;;;55.70;23.67;;;9.50;99.90;;;;;;5025109;28;20116;-49
2020/12/23 11:56:46;;;;;;;52.22;23.13;;;9.50;99.90;;;;;;5029003;28;20017;-46
2020/12/23 11:59:13;;;;;;;52.42;23.42;;;9.50;99.90;;;;;;5035500;28;20022;-48
2020/12/23 12:01:38;;;;;;;51.00;23.63;;;9.50;99.90;;;;;;5034163;28;20025;-46
2020/12/23 12:04:04;;;;;;;64.20;24.90;;;9.50;99.90;;;;;;5037201;28;20033;-44
2020/12/23 12:06:29;;;;;;;56.67;24.00;;;9.50;99.90;;;;;;5036126;28;20017;-46
2020/12/23 12:08:54;;;;;;;54.63;23.40;;;9.60;99.90;;;;;;5036755;28;20033;-45
2020/12/23 12:11:21;;;;;;;55.60;24.52;;;9.60;99.90;;;;;;5030870;28;20103;-45
2020/12/23 12:13:46;;;;;;;52.53;25.13;;;9.70;99.90;;;;;;5026611;28;20099;-46
2020/12/23 12:16:13;;;;;;;52.80;23.20;;;9.70;99.90;;;;;;5028291;28;20483;-44
2020/12/23 12:18:40;;;;;;;52.10;24.85;;;9.70;99.90;;;;;;5026343;28;20319;-45
2020/12/23 12:21:05;;;;;;;51.45;25.00;;;9.80;99.90;;;;;;5026783;28;20456;-46
2020/12/23 12:23:30;;;;;;;52.55;24.02;;;9.80;99.90;;;;;;5036811;28;20057;-44
2020/12/23 12:25:56;;;;;;;44.17;21.95;;;9.90;99.90;;;;;;5048237;28;20040;-43
2020/12/23 12:28:21;;;;;;;55.25;23.23;;;9.90;99.90;;;;;;5040994;28;20025;-45
2020/12/23 12:30:47;;;;;;;47.40;24.35;;;9.90;99.90;;;;;;5042821;28;20479;-44
2020/12/23 12:33:15;;;;;;;40.42;21.88;;;9.90;99.90;;;;;;5048379;28;20063;-45
2020/12/23 12:35:42;;;;;;;47.15;23.10;;;9.90;99.90;;;;;;5063569;28;20078;-47
2020/12/23 12:38:08;;;;;;;43.60;22.10;;;10.00;99.90;;;;;;5053706;28;20028;-45
2020/12/23 12:40:33;;;;;;;44.42;22.15;;;10.00;99.90;;;;;;5050054;28;20021;-44
2020/12/23 12:43:02;;;;;;;42.80;21.85;;;10.00;99.90;;;;;;5055485;28;20046;-46
2020/12/23 12:45:29;;;;;;;41.85;22.77;;;10.00;99.90;;;;;;5054250;28;20021;-45
2020/12/23 12:47:54;;;;;;;45.63;22.63;;;10.00;99.90;;;;;;5065384;28;20721;-44